Time;durP1;ratioP1;P1;durP2;ratioP2;P2;SDS_P1;SDS_P2;PMS_P1;PMS_P2;Temp;Humidity;BMP_temperature;BMP_pressure;BME280_temperature;BME280_humidity;BME280_pressure;Samples;Min_cycle;Max_cycle;Signal;HPM_P1;HPM_P2
2021/07/01 00:02:11;;;;;;;20.55;7.78;;;;;;;17.71;69.33;98303.70;2108412;83;21063;-62
2021/07/01 00:05:12;;;;;;;19.35;7.47;;;;;;;17.75;69.26;98301.59;2108462;84;21082;-62
2021/07/01 00:08:12;;;;;;;18.92;7.20;;;;;;;17.74;69.59;98307.40;2108516;84;21067;-66
2021/07/01 00:11:13;;;;;;;17.87;7.20;;;;;;;17.58;69.96;98305.40;2108450;84;21577;-66
2021/07/01 00:14:13;;;;;;;21.37;7.58;;;;;;;17.44;69.75;98310.75;2108339;84;21494;-62
2021/07/01 00:17:13;;;;;;;19.25;7.65;;;;;;;17.41;69.97;98301.78;2108327;84;20995;-66
2021/07/01 00:20:14;;;;;;;20.70;8.10;;;;;;;17.37;70.31;98301.73;2108369;84;20995;-62
2021/07/01 00:23:14;;;;;;;21.73;8.90;;;;;;;17.20;70.37;98295.41;2108487;84;21067;-75
2021/07/01 00:26:15;;;;;;;19.85;7.85;;;;;;;17.13;70.37;98288.54;2108524;84;21011;-75
2021/07/01 00:29:15;;;;;;;19.60;8.55;;;;;;;16.98;70.99;98288.69;2108241;84;21031;-74
2021/07/01 00:32:16;;;;;;;20.72;8.68;;;;;;;16.84;71.78;98285.17;2108317;84;21039;-76
2021/07/01 00:35:16;;;;;;;19.37;8.35;;;;;;;16.74;71.81;98292.68;2108565;84;21561;-74
2021/07/01 00:38:16;;;;;;;21.17;9.43;;;;;;;16.65;71.92;98288.74;2108333;84;21517;-74
2021/07/01 00:41:17;;;;;;;22.42;9.38;;;;;;;16.65;72.22;98278.16;2108344;84;21070;-73
2021/07/01 00:44:18;;;;;;;20.12;8.43;;;;;;;16.64;72.11;98270.71;2108163;84;21040;-75
2021/07/01 00:47:18;;;;;;;20.15;8.60;;;;;;;16.72;71.96;98264.67;2108307;84;21044;-75
2021/07/01 00:50:19;;;;;;;20.35;8.80;;;;;;;16.76;71.71;98272.17;2108459;84;21030;-73
2021/07/01 00:53:19;;;;;;;20.08;8.43;;;;;;;16.75;71.70;98271.00;2108558;84;21111;-75
2021/07/01 00:56:20;;;;;;;21.50;8.13;;;;;;;16.78;72.00;98267.58;2108245;84;21058;-73
2021/07/01 00:59:20;;;;;;;23.92;9.28;;;;;;;16.77;71.96;98261.11;2108452;84;21047;-73
2021/07/01 01:02:21;;;;;;;22.17;8.43;;;;;;;16.78;72.04;98246.39;2146670;83;21532;-75
2021/07/01 01:05:21;;;;;;;21.70;8.80;;;;;;;16.73;72.06;98235.90;2152953;83;21025;-72
2021/07/01 01:08:22;;;;;;;20.35;8.18;;;;;;;16.72;71.85;98240.84;2152981;83;20973;-74
2021/07/01 01:11:24;;;;;;;20.32;7.92;;;;;;;16.64;71.71;98254.83;2152787;83;20985;-76
2021/07/01 01:14:24;;;;;;;;;;;;;;;16.63;71.77;98251.83;2129045;83;21555;-73
2021/07/01 01:17:25;;;;;;;23.55;8.75;;;;;;;16.57;71.98;98259.86;2153051;83;20140;-73
2021/07/01 01:20:26;;;;;;;20.43;8.80;;;;;;;16.49;72.09;98257.59;2152964;83;21100;-62
2021/07/01 01:23:26;;;;;;;20.82;9.35;;;;;;;16.44;72.34;98253.56;2153012;83;22052;-63
2021/07/01 01:26:27;;;;;;;19.70;8.80;;;;;;;16.47;72.35;98243.19;2152642;83;21593;-64
2021/07/01 01:29:28;;;;;;;21.45;8.85;;;;;;;16.45;72.10;98249.95;2152972;83;21036;-62
2021/07/01 01:32:28;;;;;;;22.67;8.75;;;;;;;16.43;72.21;98257.69;2153308;83;21085;-62
2021/07/01 01:35:29;;;;;;;22.70;9.20;;;;;;;16.37;72.34;98259.09;2153304;83;21020;-62
2021/07/01 01:38:29;;;;;;;22.60;9.13;;;;;;;16.31;72.33;98262.83;2152989;83;21024;-63
2021/07/01 01:41:30;;;;;;;21.77;9.63;;;;;;;16.31;72.63;98262.83;2153114;83;21550;-62
2021/07/01 01:44:31;;;;;;;23.22;9.18;;;;;;;16.25;73.02;98266.88;2152931;83;21045;-62
2021/07/01 01:47:31;;;;;;;22.82;9.10;;;;;;;16.06;72.46;98265.09;2152960;83;20985;-62
2021/07/01 01:50:31;;;;;;;22.37;9.93;;;;;;;15.82;72.95;98265.06;2152976;83;21089;-74
2021/07/01 01:53:32;;;;;;;21.57;9.55;;;;;;;15.66;73.58;98270.89;2153252;83;21012;-73
2021/07/01 01:59:35;;;;;;;;;;;;;;;15.57;73.59;98272.56;2129250;83;21008;-65
2021/07/01 02:02:35;;;;;;;22.32;9.33;;;;;;;15.55;73.99;98283.74;2114940;83;20158;-75
2021/07/01 02:05:35;;;;;;;24.27;9.63;;;;;;;15.58;74.14;98276.03;2108585;84;21538;-75
2021/07/01 02:08:38;;;;;;;22.48;10.53;;;;;;;15.61;74.01;98267.81;2108608;84;21478;-78
2021/07/01 02:11:38;;;;;;;;;;;;;;;15.54;74.19;98255.66;2112809;83;21030;-74
2021/07/01 02:14:39;;;;;;;24.72;10.15;;;;;;;15.49;74.19;98250.45;2108525;84;20271;-71
2021/07/01 02:17:39;;;;;;;20.15;8.30;;;;;;;15.45;73.86;98253.84;2108477;84;21023;-71
2021/07/01 02:20:39;;;;;;;20.55;7.58;;;;;;;15.44;74.18;98263.23;2108535;84;21086;-64
2021/07/01 02:23:40;;;;;;;18.45;7.33;;;;;;;15.41;74.12;98263.86;2108544;84;21047;-71
2021/07/01 02:26:40;;;;;;;19.07;7.42;;;;;;;15.41;74.09;98266.51;2108432;84;21055;-65
2021/07/01 02:29:41;;;;;;;19.32;7.45;;;;;;;15.43;74.23;98267.69;2108555;84;21505;-64
2021/07/01 02:32:41;;;;;;;18.62;7.60;;;;;;;15.49;74.10;98270.27;2108551;84;21551;-63
2021/07/01 02:35:42;;;;;;;20.48;8.15;;;;;;;15.48;73.77;98279.16;2108546;84;21062;-66
2021/07/01 02:38:42;;;;;;;19.57;8.00;;;;;;;15.41;73.82;98285.00;2108590;84;21007;-66
2021/07/01 02:41:42;;;;;;;19.52;7.40;;;;;;;15.34;73.84;98285.20;2108549;84;21032;-67
2021/07/01 02:44:44;;;;;;;20.32;6.80;;;;;;;15.28;73.95;98292.83;2108071;84;21617;-64
2021/07/01 02:47:44;;;;;;;20.23;8.13;;;;;;;15.22;74.17;98305.59;2108128;84;21078;-62
2021/07/01 02:50:44;;;;;;;24.57;9.08;;;;;;;15.23;74.44;98306.45;2108683;84;21027;-62
2021/07/01 02:53:45;;;;;;;21.87;7.97;;;;;;;15.33;74.42;98305.12;2108545;84;21043;-61
2021/07/01 02:56:45;;;;;;;20.40;7.45;;;;;;;15.30;74.10;98306.73;2108657;84;21007;-62
2021/07/01 02:59:46;;;;;;;22.17;7.67;;;;;;;15.23;74.23;98312.56;2108452;84;21003;-64
2021/07/01 03:02:46;;;;;;;18.15;6.92;;;;;;;15.21;74.24;98315.84;2108699;83;21542;-63
2021/07/01 03:05:47;;;;;;;22.30;11.35;;;;;;;15.19;74.27;98321.73;2108733;84;21565;-62
2021/07/01 03:08:47;;;;;;;20.32;9.60;;;;;;;15.19;74.46;98317.77;2108755;84;21003;-62
2021/07/01 03:11:47;;;;;;;22.42;11.60;;;;;;;15.20;74.31;98321.23;2108431;84;21078;-64
2021/07/01 03:14:48;;;;;;;22.93;8.95;;;;;;;15.26;74.45;98323.35;2108673;84;21012;-62
2021/07/01 03:17:48;;;;;;;19.20;7.47;;;;;;;15.27;74.64;98326.81;2108828;84;20986;-62
2021/07/01 03:20:49;;;;;;;23.95;7.83;;;;;;;15.21;74.42;98323.77;2108923;84;21050;-64
2021/07/01 03:23:49;;;;;;;12.53;4.22;;;;;;;15.22;74.48;98325.41;2108769;84;21035;-63
2021/07/01 03:26:49;;;;;;;8.48;3.67;;;;;;;15.27;74.38;98326.35;2108816;84;21014;-68
2021/07/01 03:29:50;;;;;;;9.60;3.55;;;;;;;15.24;74.67;98325.28;2108843;84;21485;-68
2021/07/01 03:32:50;;;;;;;17.02;5.83;;;;;;;15.33;74.77;98327.59;2108719;84;21023;-64
2021/07/01 03:35:51;;;;;;;17.23;5.72;;;;;;;15.52;74.35;98327.63;2108775;84;21010;-72
2021/07/01 03:38:51;;;;;;;19.05;7.20;;;;;;;15.67;74.18;98325.41;2108945;84;20983;-70
2021/07/01 03:41:52;;;;;;;23.98;7.97;;;;;;;15.92;73.99;98328.03;2108394;84;21058;-68
2021/07/01 03:44:52;;;;;;;28.98;6.97;;;;;;;16.11;73.70;98328.50;2108777;84;20967;-74
2021/07/01 03:47:53;;;;;;;27.70;7.35;;;;;;;16.28;73.67;98312.89;2108691;84;21498;-75
2021/07/01 03:50:53;;;;;;;21.35;8.00;;;;;;;16.50;73.63;98316.19;2108692;84;20968;-73
2021/07/01 03:53:53;;;;;;;21.33;7.85;;;;;;;16.81;73.35;98316.78;2108652;84;21003;-62
2021/07/01 03:56:54;;;;;;;21.37;8.60;;;;;;;17.10;73.22;98319.31;2108672;84;21015;-65
2021/07/01 03:59:54;;;;;;;23.22;8.63;;;;;;;17.34;73.06;98325.03;2108946;84;20990;-69
2021/07/01 04:02:55;;;;;;;25.57;9.45;;;;;;;17.51;73.13;98331.34;2108491;84;21036;-62
2021/07/01 04:05:55;;;;;;;26.27;8.38;;;;;;;17.59;73.11;98336.24;2108543;84;21004;-64
2021/07/01 04:08:56;;;;;;;22.07;8.03;;;;;;;17.70;72.95;98339.66;2108170;84;21063;-64
2021/07/01 04:11:57;;;;;;;26.62;7.90;;;;;;;17.79;72.87;98326.83;2108286;84;21579;-65
2021/07/01 04:14:57;;;;;;;23.00;8.33;;;;;;;17.89;72.82;98328.08;2108515;84;21011;-65
2021/07/01 04:17:58;;;;;;;25.08;8.68;;;;;;;18.14;73.03;98327.30;2108581;84;21015;-62
2021/07/01 04:20:58;;;;;;;25.82;9.10;;;;;;;18.37;72.45;98320.17;2108419;84;20991;-64
2021/07/01 04:23:59;;;;;;;24.43;9.58;;;;;;;18.56;72.21;98322.28;2108331;84;20983;-62
2021/07/01 04:27:00;;;;;;;22.65;9.33;;;;;;;18.81;71.63;98323.27;2108508;84;21058;-63
2021/07/01 04:30:00;;;;;;;24.40;8.93;;;;;;;18.95;71.62;98318.72;2108329;84;21003;-67
2021/07/01 04:33:01;;;;;;;27.00;8.65;;;;;;;19.18;71.28;98332.77;2108294;84;21087;-62
2021/07/01 04:36:01;;;;;;;24.02;8.88;;;;;;;19.51;71.46;98333.69;2108370;84;21035;-63
2021/07/01 04:39:02;;;;;;;27.98;9.35;;;;;;;19.89;70.61;98334.60;2108446;84;21052;-67
2021/07/01 04:42:02;;;;;;;25.27;9.58;;;;;;;20.02;69.72;98331.45;2108436;84;21008;-65
2021/07/01 04:45:03;;;;;;;23.47;10.10;;;;;;;20.17;69.62;98328.94;2108087;84;21039;-62
2021/07/01 04:48:03;;;;;;;24.95;9.85;;;;;;;20.28;69.44;98329.94;2108690;84;21040;-71
2021/07/01 04:51:04;;;;;;;22.70;10.25;;;;;;;20.47;69.10;98338.58;2108305;84;21058;-71
2021/07/01 04:54:04;;;;;;;24.98;9.83;;;;;;;20.58;68.63;98338.23;2108641;84;21004;-69
2021/07/01 04:57:05;;;;;;;22.90;9.33;;;;;;;20.50;68.80;98343.08;2108407;84;20987;-69
2021/07/01 05:00:05;;;;;;;21.30;9.70;;;;;;;20.42;68.53;98337.75;2108438;84;20959;-71
2021/07/01 05:03:06;;;;;;;22.15;8.63;;;;;;;20.50;69.15;98339.08;2108256;83;21142;-68
2021/07/01 05:06:06;;;;;;;19.45;6.65;;;;;;;20.50;68.62;98345.74;2108698;84;21464;-70
2021/07/01 05:09:06;;;;;;;21.02;6.87;;;;;;;20.55;68.25;98335.91;2108752;84;21002;-67
2021/07/01 05:12:07;;;;;;;18.50;7.03;;;;;;;20.70;67.95;98338.72;2108562;84;21046;-69
2021/07/01 05:15:08;;;;;;;18.73;6.87;;;;;;;21.08;67.16;98333.62;2108528;84;21055;-63
2021/07/01 05:18:08;;;;;;;17.90;6.90;;;;;;;21.37;66.04;98328.15;2108990;84;20976;-63
2021/07/01 05:21:08;;;;;;;16.30;6.45;;;;;;;21.52;65.45;98321.10;2109004;84;20968;-62
2021/07/01 05:24:09;;;;;;;20.20;7.17;;;;;;;21.75;65.28;98324.27;2108882;84;21054;-66
2021/07/01 05:27:09;;;;;;;21.50;6.53;;;;;;;21.84;64.73;98324.55;2109253;84;21030;-63
2021/07/01 05:30:10;;;;;;;15.27;5.10;;;;;;;21.78;64.80;98325.27;2108988;84;21090;-66
2021/07/01 05:33:10;;;;;;;16.27;5.27;;;;;;;21.71;63.77;98331.81;2109145;84;20976;-65
2021/07/01 05:36:11;;;;;;;14.20;5.37;;;;;;;21.79;63.53;98333.58;2108981;84;21569;-62
2021/07/01 05:39:12;;;;;;;16.15;4.97;;;;;;;21.84;62.96;98339.72;2109033;84;21589;-64
2021/07/01 05:42:12;;;;;;;17.32;5.47;;;;;;;21.70;63.35;98335.48;2109143;84;21038;-65
2021/07/01 05:45:13;;;;;;;16.30;5.30;;;;;;;21.89;63.86;98334.17;2108685;84;21019;-66
2021/07/01 05:48:13;;;;;;;14.07;5.30;;;;;;;22.18;63.80;98333.13;2109173;84;21023;-65
2021/07/01 05:51:15;;;;;;;14.57;5.20;;;;;;;22.93;63.66;98326.89;2109370;84;21015;-66
2021/07/01 05:57:16;;;;;;;14.80;4.70;;;;;;;23.71;59.81;98323.71;2108707;84;20162;-63
2021/07/01 06:00:18;;;;;;;8.53;3.93;;;;;;;23.86;59.31;98325.86;2084001;84;20993;-69
2021/07/01 06:03:19;;;;;;;9.95;3.87;;;;;;;23.82;58.33;98322.36;2102727;83;21593;-62
2021/07/01 06:06:19;;;;;;;12.23;4.73;;;;;;;23.85;57.46;98331.37;2108928;84;20987;-68
2021/07/01 06:09:21;;;;;;;10.30;3.77;;;;;;;23.70;58.36;98332.27;2108868;84;21075;-66
2021/07/01 06:12:22;;;;;;;13.07;4.10;;;;;;;23.46;57.91;98329.42;2108914;84;21004;-62
2021/07/01 06:15:22;;;;;;;11.67;4.37;;;;;;;23.50;58.02;98336.55;2108941;84;21122;-62
2021/07/01 06:18:23;;;;;;;10.57;4.20;;;;;;;23.43;57.57;98331.63;2108684;84;21521;-72
2021/07/01 06:21:24;;;;;;;10.60;4.13;;;;;;;23.46;57.46;98340.13;2108693;84;20999;-72
2021/07/01 06:24:25;;;;;;;10.00;3.90;;;;;;;23.65;57.07;98340.02;2108758;84;21637;-64
2021/07/01 06:30:28;;;;;;;9.80;3.30;;;;;;;23.75;56.30;98331.69;2104404;84;20999;-67
2021/07/01 06:33:28;;;;;;;10.63;3.20;;;;;;;23.86;55.36;98331.22;2108774;84;21571;-71
2021/07/01 06:36:29;;;;;;;11.17;3.80;;;;;;;23.94;55.80;98340.96;2108960;84;21058;-67
2021/07/01 06:39:29;;;;;;;10.17;3.60;;;;;;;24.02;55.69;98331.95;2108984;84;21027;-69
2021/07/01 06:42:30;;;;;;;9.13;3.30;;;;;;;24.23;53.57;98334.31;2108871;84;20999;-69
2021/07/01 06:45:31;;;;;;;8.20;3.53;;;;;;;24.31;55.07;98338.17;2108714;84;21044;-70
2021/07/01 06:48:31;;;;;;;11.70;4.03;;;;;;;24.66;54.43;98332.39;2109000;84;21052;-66
2021/07/01 06:51:32;;;;;;;11.80;3.60;;;;;;;24.74;53.68;98328.74;2108812;84;21092;-71
2021/07/01 06:54:32;;;;;;;8.23;3.40;;;;;;;24.72;54.31;98324.92;2093728;84;21486;-64
2021/07/01 06:57:33;;;;;;;13.10;4.13;;;;;;;24.84;52.42;98318.48;2098876;84;21470;-63
2021/07/01 07:00:34;;;;;;;17.57;4.10;;;;;;;24.65;53.49;98311.14;2098027;84;20972;-64
2021/07/01 07:03:34;;;;;;;8.13;3.00;;;;;;;24.43;52.82;98312.52;2108414;83;21114;-63
2021/07/01 07:06:37;;;;;;;7.00;3.02;;;;;;;24.39;50.92;98318.79;2094226;82;21090;-62
2021/07/01 07:09:39;;;;;;;11.30;3.83;;;;;;;23.90;52.43;98317.44;2146253;82;21594;-63
2021/07/01 07:12:42;;;;;;;8.90;3.30;;;;;;;23.72;54.13;98322.70;2157231;82;20984;-64
2021/07/01 07:15:42;;;;;;;9.33;3.12;;;;;;;23.48;53.20;98322.55;2086604;84;21047;-62
2021/07/01 07:18:43;;;;;;;10.75;3.60;;;;;;;23.15;53.20;98322.46;2107780;84;21541;-61
2021/07/01 07:21:44;;;;;;;13.40;3.63;;;;;;;23.01;54.24;98321.45;2108263;84;21047;-62
2021/07/01 07:24:50;;;;;;;5.70;2.58;;;;;;;23.07;54.35;98330.55;2108422;84;21050;-69
2021/07/01 07:27:48;;;;;;;6.65;2.77;;;;;;;23.05;53.43;98339.28;2086098;84;21546;-63
2021/07/01 07:30:49;;;;;;;5.70;2.63;;;;;;;22.98;53.20;98333.02;2108461;84;21062;-63
2021/07/01 07:33:53;;;;;;;8.43;2.80;;;;;;;23.08;52.35;98337.56;2105953;84;21043;-77
2021/07/01 07:36:55;;;;;;;7.65;2.67;;;;;;;23.47;53.61;98334.26;2104381;82;21071;-63
2021/07/01 07:39:56;;;;;;;;;;;;;;;23.92;52.08;98329.63;2104104;84;21002;-65
2021/07/01 07:42:59;;;;;;;6.55;2.52;;;;;;;24.02;51.12;98337.31;2108488;82;20170;-70
2021/07/01 07:45:59;;;;;;;7.75;2.52;;;;;;;24.03;51.18;98329.60;2127216;82;21039;-75
2021/07/01 07:49:00;;;;;;;6.43;2.47;;;;;;;24.41;50.14;98329.80;2092416;84;21087;-71
2021/07/01 07:52:03;;;;;;;7.20;2.58;;;;;;;24.29;50.22;98333.01;2093641;84;21038;-75
2021/07/01 07:55:03;;;;;;;5.60;2.25;;;;;;;24.09;51.44;98338.20;2094167;84;21098;-71
2021/07/01 07:58:07;;;;;;;5.90;2.03;;;;;;;23.82;49.79;98334.41;2094997;84;20989;-71
2021/07/01 08:01:09;;;;;;;2.67;1.90;;;;;;;23.40;49.18;98342.72;2094445;84;21084;-75
2021/07/01 08:04:12;;;;;;;9.67;2.90;;;;;;;23.17;49.09;98338.33;2094382;85;21068;-65
2021/07/01 08:10:16;;;;;;;5.45;2.60;;;;;;;22.80;52.03;98344.06;2073793;85;21005;-76
2021/07/01 08:13:16;;;;;;;6.28;2.90;;;;;;;22.60;53.37;98346.48;2097362;84;21652;-74
2021/07/01 08:16:17;;;;;;;4.17;2.30;;;;;;;22.47;53.39;98354.59;2108148;84;21051;-67
2021/07/01 08:19:17;;;;;;;6.10;2.67;;;;;;;22.36;52.52;98368.91;2107591;84;21003;-69
2021/07/01 08:22:18;;;;;;;6.63;2.40;;;;;;;22.21;53.00;98356.80;2108169;84;20995;-74
2021/07/01 08:25:18;;;;;;;8.07;2.40;;;;;;;22.07;52.32;98350.42;2108540;84;21036;-65
2021/07/01 08:28:19;;;;;;;8.30;2.80;;;;;;;21.98;52.50;98359.00;2108389;84;21522;-67
2021/07/01 08:31:20;;;;;;;8.47;2.50;;;;;;;21.92;51.57;98362.36;2094636;82;21524;-75
2021/07/01 08:34:21;;;;;;;8.10;2.60;;;;;;;21.89;52.28;98366.72;2109535;84;21011;-71
2021/07/01 08:37:22;;;;;;;10.25;2.60;;;;;;;21.87;52.62;98366.08;2109307;84;21541;-74
2021/07/01 08:40:22;;;;;;;7.93;2.77;;;;;;;21.84;52.86;98363.25;2109606;84;20987;-71
2021/07/01 08:43:22;;;;;;;6.87;2.87;;;;;;;21.90;53.15;98365.72;2109499;84;21050;-70
2021/07/01 08:46:23;;;;;;;6.13;2.93;;;;;;;21.90;52.98;98368.39;2109408;84;20998;-68
2021/07/01 08:49:24;;;;;;;6.80;2.87;;;;;;;21.91;54.00;98356.20;2105083;84;20987;-74
2021/07/01 08:52:25;;;;;;;9.97;3.30;;;;;;;21.94;54.57;98352.34;2073791;86;20997;-73
2021/07/01 08:55:25;;;;;;;11.80;3.47;;;;;;;22.04;54.38;98354.75;2099481;84;21485;-70
2021/07/01 08:58:26;;;;;;;5.27;2.90;;;;;;;22.00;54.63;98353.48;2095084;84;20983;-69
2021/07/01 09:01:28;;;;;;;7.83;3.27;;;;;;;21.91;55.04;98356.68;2092681;84;21043;-70
2021/07/01 09:04:29;;;;;;;8.65;2.80;;;;;;;21.89;55.39;98370.21;2042645;86;21070;-70
2021/07/01 09:07:30;;;;;;;8.55;3.20;;;;;;;21.85;55.45;98372.08;2081292;85;21048;-62
2021/07/01 09:10:31;;;;;;;11.37;3.77;;;;;;;21.79;56.00;98370.47;2043589;87;21636;-63
2021/07/01 09:13:32;;;;;;;;;;;;;;;21.77;56.97;98371.64;2012700;89;21039;-62
2021/07/01 09:16:33;;;;;;;9.03;3.55;;;;;;;21.56;57.56;98372.25;2044873;87;20409;-65
2021/07/01 09:19:33;;;;;;;10.10;3.50;;;;;;;21.42;58.25;98363.11;2043926;87;21046;-66
2021/07/01 09:22:35;;;;;;;12.50;3.50;;;;;;;21.42;58.86;98370.63;2010337;89;21091;-66
2021/07/01 09:25:38;;;;;;;;;;;;;;;21.39;58.13;98370.98;2084751;86;21595;-69
2021/07/01 09:28:39;;;;;;;8.38;3.25;;;;;;;21.40;58.78;98375.30;2082405;86;20128;-65
2021/07/01 09:31:40;;;;;;;9.80;3.20;;;;;;;21.51;58.64;98364.78;2043827;87;21046;-67
2021/07/01 09:34:41;;;;;;;9.68;3.20;;;;;;;21.53;58.46;98365.94;2002129;89;21566;-67
2021/07/01 09:37:41;;;;;;;12.93;3.65;;;;;;;21.52;58.95;98369.61;2071045;85;21486;-62
2021/07/01 09:40:42;;;;;;;8.23;3.20;;;;;;;21.47;58.70;98366.10;2048614;87;21008;-68
2021/07/01 09:43:42;;;;;;;7.42;3.08;;;;;;;21.45;58.63;98376.13;2048773;87;21503;-64
2021/07/01 09:46:43;;;;;;;10.72;3.50;;;;;;;21.44;59.72;98384.61;2048685;87;21040;-71
2021/07/01 09:49:44;;;;;;;11.57;3.23;;;;;;;21.40;58.99;98391.81;2059126;86;21508;-63
2021/07/01 09:52:45;;;;;;;7.75;3.20;;;;;;;21.39;59.54;98388.81;2044972;87;21579;-67
2021/07/01 09:55:45;;;;;;;7.03;3.00;;;;;;;21.38;59.71;98384.50;2010684;89;20987;-64
2021/07/01 09:58:46;;;;;;;10.70;3.40;;;;;;;21.36;59.70;98387.83;2082789;86;21052;-65
2021/07/01 10:01:46;;;;;;;9.00;4.08;;;;;;;21.34;60.07;98395.19;2045167;87;21051;-66
2021/07/01 10:04:47;;;;;;;12.33;3.67;;;;;;;21.32;59.64;98394.51;2064565;86;21112;-67
2021/07/01 10:07:48;;;;;;;8.57;3.30;;;;;;;21.34;59.93;98401.34;2108245;84;21616;-63
2021/07/01 10:10:49;;;;;;;7.63;3.13;;;;;;;21.37;59.40;98396.98;2106154;84;21042;-66
2021/07/01 10:13:50;;;;;;;12.23;3.40;;;;;;;21.35;59.77;98402.16;2104489;84;21003;-63
2021/07/01 10:16:50;;;;;;;7.40;3.00;;;;;;;21.28;59.76;98404.19;2108619;84;20971;-63
2021/07/01 10:19:51;;;;;;;11.00;3.57;;;;;;;21.22;60.51;98399.55;2108659;84;21011;-63
2021/07/01 10:22:51;;;;;;;9.43;3.70;;;;;;;21.29;60.45;98399.67;2108694;84;21035;-62
2021/07/01 10:25:52;;;;;;;7.77;3.23;;;;;;;21.26;60.15;98400.03;2108775;84;21032;-63
2021/07/01 10:28:52;;;;;;;10.03;3.60;;;;;;;21.25;59.84;98393.05;2103294;84;21095;-63
2021/07/01 10:31:55;;;;;;;10.90;3.63;;;;;;;21.34;60.20;98399.19;2107887;84;21094;-63
2021/07/01 10:34:56;;;;;;;12.78;3.60;;;;;;;21.41;59.82;98398.82;2065779;86;21008;-68
2021/07/01 10:37:56;;;;;;;11.70;3.70;;;;;;;21.53;60.05;98396.11;2073817;86;21058;-63
2021/07/01 10:40:59;;;;;;;9.30;3.75;;;;;;;21.53;60.05;98396.11;2073889;86;21703;-64
2021/07/01 10:43:59;;;;;;;10.72;3.75;;;;;;;21.57;60.07;98395.27;2052693;86;21023;-66
2021/07/01 10:47:00;;;;;;;9.70;3.77;;;;;;;21.54;60.01;98394.29;2093855;84;21074;-67
2021/07/01 10:50:01;;;;;;;12.23;3.70;;;;;;;21.53;60.13;98395.29;2108632;84;21063;-68
2021/07/01 10:53:01;;;;;;;7.53;3.40;;;;;;;21.54;60.12;98399.11;2108458;84;21545;-63
2021/07/01 10:56:02;;;;;;;9.27;3.40;;;;;;;21.53;59.19;98400.11;2108180;84;21035;-66
2021/07/01 10:59:03;;;;;;;9.18;3.30;;;;;;;21.40;58.94;98411.31;2108469;84;21525;-66
2021/07/01 11:02:03;;;;;;;8.50;3.33;;;;;;;21.29;59.45;98415.20;2108354;84;21537;-64
2021/07/01 11:05:04;;;;;;;11.57;3.83;;;;;;;21.33;59.63;98421.52;2108492;82;21019;-65
2021/07/01 11:08:05;;;;;;;14.58;3.70;;;;;;;21.31;59.93;98423.02;2108783;84;21056;-65
2021/07/01 11:11:06;;;;;;;12.43;4.12;;;;;;;21.31;60.08;98417.69;2108762;84;20999;-73
2021/07/01 11:14:07;;;;;;;14.73;4.07;;;;;;;21.35;60.27;98416.34;2108875;84;21565;-69
2021/07/01 11:20:10;;;;;;;12.37;3.83;;;;;;;21.46;60.44;98424.45;2081288;84;21058;-65
2021/07/01 11:23:10;;;;;;;14.00;4.40;;;;;;;21.36;59.81;98409.98;2092740;84;21046;-63
2021/07/01 11:26:11;;;;;;;12.63;4.47;;;;;;;21.36;59.81;98409.98;2074036;86;21043;-67
2021/07/01 11:29:12;;;;;;;12.63;4.55;;;;;;;21.42;60.07;98412.47;2073932;86;21087;-66
2021/07/01 11:32:12;;;;;;;15.10;4.20;;;;;;;21.54;60.03;98396.45;2074142;86;21031;-65
2021/07/01 11:35:13;;;;;;;13.98;3.98;;;;;;;21.53;59.89;98387.28;2074068;86;21431;-63
2021/07/01 11:38:14;;;;;;;11.63;3.98;;;;;;;21.49;60.54;98390.75;2074175;86;21004;-67
2021/07/01 11:41:15;;;;;;;12.83;3.93;;;;;;;21.52;60.06;98378.46;2073987;86;21007;-63
2021/07/01 11:44:16;;;;;;;13.45;3.83;;;;;;;21.61;59.79;98367.23;2033986;88;20996;-63
2021/07/01 11:47:17;;;;;;;13.90;4.80;;;;;;;21.79;59.79;98373.13;2027747;88;21045;-68
2021/07/01 11:50:17;;;;;;;10.73;3.93;;;;;;;22.02;58.87;98377.63;2027685;88;21040;-63
2021/07/01 11:53:18;;;;;;;12.13;3.93;;;;;;;22.43;59.76;98382.69;2027699;87;21060;-64
2021/07/01 11:56:19;;;;;;;14.40;4.60;;;;;;;22.95;58.46;98380.18;2027524;87;21053;-73
2021/07/01 11:59:19;;;;;;;13.63;4.10;;;;;;;23.26;56.95;98394.73;2027442;88;21099;-65
2021/07/01 12:02:20;;;;;;;12.67;4.97;;;;;;;23.51;56.01;98399.26;2023255;86;21048;-63
2021/07/01 12:05:20;;;;;;;13.20;3.83;;;;;;;23.68;56.06;98395.86;2021329;86;21013;-64
2021/07/01 12:08:20;;;;;;;12.63;4.00;;;;;;;23.64;54.43;98395.09;2021603;88;20969;-68
2021/07/01 12:11:21;;;;;;;13.03;3.80;;;;;;;23.58;55.00;98398.01;2021232;88;21016;-63
2021/07/01 12:14:21;;;;;;;12.60;3.67;;;;;;;23.68;55.46;98397.20;2019589;87;21160;-71
2021/07/01 12:17:22;;;;;;;16.23;3.80;;;;;;;23.68;55.46;98397.20;2020706;88;21033;-74
2021/07/01 12:20:22;;;;;;;13.77;3.70;;;;;;;23.77;55.88;98399.25;2021515;88;21000;-71
2021/07/01 12:23:23;;;;;;;11.80;3.70;;;;;;;23.93;54.85;98404.09;2020746;88;21079;-73
2021/07/01 12:26:24;;;;;;;14.20;4.13;;;;;;;24.03;53.25;98414.83;2021356;87;21000;-75
2021/07/01 12:29:24;;;;;;;11.70;4.30;;;;;;;23.81;54.30;98415.26;2021403;88;21735;-73
2021/07/01 12:32:25;;;;;;;15.60;4.90;;;;;;;23.81;55.08;98420.61;2021404;88;21072;-75
2021/07/01 12:35:25;;;;;;;12.20;3.80;;;;;;;23.78;54.66;98420.17;2021317;88;21072;-74
2021/07/01 12:38:26;;;;;;;9.00;3.83;;;;;;;23.80;53.88;98414.11;2021638;88;21064;-75
2021/07/01 12:41:26;;;;;;;11.23;4.10;;;;;;;23.75;53.85;98413.84;2021555;88;21561;-75
2021/07/01 12:44:27;;;;;;;13.27;4.17;;;;;;;23.69;53.25;98418.09;2021526;88;21555;-75
2021/07/01 12:47:27;;;;;;;13.53;3.80;;;;;;;23.92;52.13;98403.27;2021372;88;21558;-75
2021/07/01 12:50:28;;;;;;;13.40;3.97;;;;;;;24.16;52.64;98400.70;2021376;88;21065;-74
2021/07/01 12:53:29;;;;;;;12.28;4.00;;;;;;;24.44;53.30;98392.39;2021228;88;21072;-74
2021/07/01 12:56:31;;;;;;;14.83;4.00;;;;;;;24.74;51.00;98391.75;2020869;88;21096;-75
2021/07/01 12:59:31;;;;;;;8.83;3.43;;;;;;;25.10;51.00;98400.13;2021560;87;21072;-73
2021/07/01 13:02:31;;;;;;;13.37;4.20;;;;;;;25.10;49.97;98400.13;2021582;88;21060;-64
2021/07/01 13:05:33;;;;;;;10.23;3.80;;;;;;;25.44;51.98;98394.95;2026849;86;21052;-64
2021/07/01 13:08:33;;;;;;;9.53;3.77;;;;;;;25.72;48.83;98394.33;2028698;88;21036;-63
2021/07/01 13:11:36;;;;;;;13.50;3.73;;;;;;;26.16;49.61;98384.14;2028942;88;21016;-64
2021/07/01 13:14:36;;;;;;;11.48;3.85;;;;;;;26.35;49.48;98389.71;2030144;87;21120;-63
2021/07/01 13:17:37;;;;;;;9.53;3.30;;;;;;;26.13;48.28;98399.30;2028643;88;21028;-64
2021/07/01 13:20:37;;;;;;;8.47;3.23;;;;;;;25.54;49.27;98403.45;2028818;87;21032;-65
2021/07/01 13:23:38;;;;;;;11.93;3.60;;;;;;;25.07;50.34;98401.88;2029051;88;21076;-64
2021/07/01 13:26:39;;;;;;;9.93;3.80;;;;;;;24.90;50.56;98403.51;2028547;88;21032;-64
2021/07/01 13:29:40;;;;;;;13.57;4.03;;;;;;;24.61;50.71;98401.87;2028919;88;21583;-63
2021/07/01 13:32:40;;;;;;;8.73;3.10;;;;;;;24.45;51.07;98408.80;2028811;88;21386;-63
2021/07/01 13:35:41;;;;;;;7.37;3.47;;;;;;;24.53;50.65;98405.98;2028901;88;21008;-63
2021/07/01 13:38:44;;;;;;;9.83;3.35;;;;;;;25.30;52.20;98408.78;2028708;88;20984;-63
2021/07/01 13:41:44;;;;;;;10.72;4.08;;;;;;;26.57;46.79;98409.98;2028598;88;21032;-68
2021/07/01 13:44:45;;;;;;;13.00;3.53;;;;;;;26.08;47.12;98414.70;2028814;87;21052;-76
2021/07/01 13:47:45;;;;;;;9.37;3.50;;;;;;;26.16;47.54;98412.36;2028880;88;21102;-75
2021/07/01 13:50:47;;;;;;;7.70;3.40;;;;;;;26.46;48.47;98405.23;2029221;88;21052;-74
2021/07/01 13:53:48;;;;;;;7.50;3.30;;;;;;;26.67;45.93;98407.42;2028830;87;21032;-72
2021/07/01 13:56:48;;;;;;;6.10;3.23;;;;;;;26.72;45.56;98407.13;2028974;88;21024;-74
2021/07/01 13:59:48;;;;;;;12.83;3.30;;;;;;;27.00;46.03;98394.47;2028951;88;21055;-71
2021/07/01 14:02:49;;;;;;;7.30;3.10;;;;;;;26.67;46.74;98399.34;2029193;88;21321;-70
2021/07/01 14:05:49;;;;;;;10.43;3.30;;;;;;;26.95;45.83;98409.88;2028946;87;21075;-66
2021/07/01 14:08:50;;;;;;;9.20;3.33;;;;;;;26.95;45.83;98409.88;2029169;88;21044;-72
2021/07/01 14:11:52;;;;;;;7.63;3.70;;;;;;;26.79;46.22;98408.45;2029014;88;21092;-74
2021/07/01 14:14:53;;;;;;;6.65;3.00;;;;;;;26.76;47.15;98402.97;2029731;88;21096;-74
2021/07/01 14:17:53;;;;;;;6.67;2.80;;;;;;;26.57;45.36;98407.83;2029162;88;20995;-74
2021/07/01 14:20:54;;;;;;;11.87;3.20;;;;;;;25.86;46.23;98414.50;2029053;88;21075;-75